sensor_id;sensor_type;location;lat;lon;timestamp;P1;durP1;ratioP1;P2;durP2;ratioP2
11498;SDS011;5806;48.748;9.278;2024-03-23T00:52:19;14.40;;;9.43;;
11498;SDS011;5806;48.748;9.278;2024-03-23T00:54:47;17.63;;;9.77;;
11498;SDS011;5806;48.748;9.278;2024-03-23T00:57:14;16.53;;;9.03;;
11498;SDS011;5806;48.748;9.278;2024-03-23T00:59:42;15.10;;;8.93;;
11498;SDS011;5806;48.748;9.278;2024-03-23T01:02:09;19.10;;;9.23;;
11498;SDS011;5806;48.748;9.278;2024-03-23T01:04:37;16.20;;;8.43;;
11498;SDS011;5806;48.748;9.278;2024-03-23T01:07:04;19.17;;;9.23;;
11498;SDS011;5806;48.748;9.278;2024-03-23T01:09:31;16.63;;;7.87;;
11498;SDS011;5806;48.748;9.278;2024-03-23T01:11:59;16.00;;;8.87;;
11498;SDS011;5806;48.748;9.278;2024-03-23T01:14:27;15.80;;;8.07;;
11498;SDS011;5806;48.748;9.278;2024-03-23T01:16:54;17.93;;;8.53;;
11498;SDS011;5806;48.748;9.278;2024-03-23T01:19:22;19.53;;;8.20;;
11498;SDS011;5806;48.748;9.278;2024-03-23T01:21:49;15.80;;;8.00;;
11498;SDS011;5806;48.748;9.278;2024-03-23T01:24:17;15.70;;;8.17;;
11498;SDS011;5806;48.748;9.278;2024-03-23T01:26:44;17.63;;;7.50;;
11498;SDS011;5806;48.748;9.278;2024-03-23T01:29:11;11.67;;;5.83;;
11498;SDS011;5806;48.748;9.278;2024-03-23T01:31:39;14.67;;;6.10;;
11498;SDS011;5806;48.748;9.278;2024-03-23T01:34:06;10.60;;;5.73;;
11498;SDS011;5806;48.748;9.278;2024-03-23T01:36:34;15.10;;;6.67;;
11498;SDS011;5806;48.748;9.278;2024-03-23T01:39:01;12.53;;;5.50;;
11498;SDS011;5806;48.748;9.278;2024-03-23T01:41:28;10.37;;;5.37;;
11498;SDS011;5806;48.748;9.278;2024-03-23T01:43:56;10.73;;;6.10;;
11498;SDS011;5806;48.748;9.278;2024-03-23T01:46:24;14.07;;;5.50;;
11498;SDS011;5806;48.748;9.278;2024-03-23T01:48:52;11.20;;;5.00;;
11498;SDS011;5806;48.748;9.278;2024-03-23T01:51:19;11.97;;;5.07;;
11498;SDS011;5806;48.748;9.278;2024-03-23T01:53:47;10.70;;;4.50;;
11498;SDS011;5806;48.748;9.278;2024-03-23T01:56:14;9.43;;;4.47;;
11498;SDS011;5806;48.748;9.278;2024-03-23T01:58:42;9.97;;;4.43;;
11498;SDS011;5806;48.748;9.278;2024-03-23T02:01:10;9.20;;;3.93;;
11498;SDS011;5806;48.748;9.278;2024-03-23T02:03:38;10.17;;;4.10;;
11498;SDS011;5806;48.748;9.278;2024-03-23T02:06:05;7.60;;;3.40;;
11498;SDS011;5806;48.748;9.278;2024-03-23T02:08:34;8.37;;;3.97;;
11498;SDS011;5806;48.748;9.278;2024-03-23T02:11:02;10.20;;;3.27;;
11498;SDS011;5806;48.748;9.278;2024-03-23T02:13:29;11.77;;;3.70;;
11498;SDS011;5806;48.748;9.278;2024-03-23T02:15:57;8.40;;;2.87;;
11498;SDS011;5806;48.748;9.278;2024-03-23T02:18:24;5.43;;;2.50;;
11498;SDS011;5806;48.748;9.278;2024-03-23T02:20:52;8.00;;;2.87;;
11498;SDS011;5806;48.748;9.278;2024-03-23T02:23:19;8.50;;;2.90;;
11498;SDS011;5806;48.748;9.278;2024-03-23T02:25:47;8.17;;;2.83;;
11498;SDS011;5806;48.748;9.278;2024-03-23T02:28:14;4.27;;;2.60;;
11498;SDS011;5806;48.748;9.278;2024-03-23T02:30:42;7.57;;;2.80;;
11498;SDS011;5806;48.748;9.278;2024-03-23T02:33:10;8.27;;;2.90;;
11498;SDS011;5806;48.748;9.278;2024-03-23T02:35:37;6.77;;;2.93;;
11498;SDS011;5806;48.748;9.278;2024-03-23T02:38:05;6.67;;;2.30;;
11498;SDS011;5806;48.748;9.278;2024-03-23T02:40:32;10.73;;;3.23;;
11498;SDS011;5806;48.748;9.278;2024-03-23T02:43:00;9.20;;;3.10;;
11498;SDS011;5806;48.748;9.278;2024-03-23T02:45:27;6.60;;;3.10;;
11498;SDS011;5806;48.748;9.278;2024-03-23T02:47:55;9.73;;;3.00;;
11498;SDS011;5806;48.748;9.278;2024-03-23T02:50:22;8.43;;;2.77;;
11498;SDS011;5806;48.748;9.278;2024-03-23T02:52:50;11.17;;;3.20;;
11498;SDS011;5806;48.748;9.278;2024-03-23T02:55:17;8.37;;;2.60;;
11498;SDS011;5806;48.748;9.278;2024-03-23T02:57:45;5.43;;;3.10;;
11498;SDS011;5806;48.748;9.278;2024-03-23T03:00:12;9.53;;;3.97;;
11498;SDS011;5806;48.748;9.278;2024-03-23T03:02:40;8.70;;;3.97;;
11498;SDS011;5806;48.748;9.278;2024-03-23T03:05:08;8.00;;;3.60;;
11498;SDS011;5806;48.748;9.278;2024-03-23T03:07:36;10.63;;;3.77;;
11498;SDS011;5806;48.748;9.278;2024-03-23T03:10:05;10.13;;;3.43;;
11498;SDS011;5806;48.748;9.278;2024-03-23T03:12:35;7.97;;;3.57;;
11498;SDS011;5806;48.748;9.278;2024-03-23T03:15:03;7.50;;;3.80;;
11498;SDS011;5806;48.748;9.278;2024-03-23T03:17:31;7.43;;;3.80;;
11498;SDS011;5806;48.748;9.278;2024-03-23T03:19:58;7.97;;;3.90;;
11498;SDS011;5806;48.748;9.278;2024-03-23T03:22:26;9.03;;;3.87;;
11498;SDS011;5806;48.748;9.278;2024-03-23T03:24:54;7.77;;;3.90;;
11498;SDS011;5806;48.748;9.278;2024-03-23T03:27:21;9.37;;;3.50;;
11498;SDS011;5806;48.748;9.278;2024-03-23T03:29:50;6.27;;;3.10;;
11498;SDS011;5806;48.748;9.278;2024-03-23T03:32:17;9.17;;;3.40;;
11498;SDS011;5806;48.748;9.278;2024-03-23T03:34:44;8.10;;;3.40;;
11498;SDS011;5806;48.748;9.278;2024-03-23T03:37:12;7.90;;;3.20;;
11498;SDS011;5806;48.748;9.278;2024-03-23T03:39:39;5.57;;;3.20;;
11498;SDS011;5806;48.748;9.278;2024-03-23T03:42:07;8.43;;;3.93;;
11498;SDS011;5806;48.748;9.278;2024-03-23T03:44:34;9.93;;;3.37;;
11498;SDS011;5806;48.748;9.278;2024-03-23T03:47:02;7.27;;;3.40;;
11498;SDS011;5806;48.748;9.278;2024-03-23T03:49:31;8.70;;;3.97;;
11498;SDS011;5806;48.748;9.278;2024-03-23T03:51:58;9.37;;;4.07;;
11498;SDS011;5806;48.748;9.278;2024-03-23T03:54:27;10.33;;;4.00;;
11498;SDS011;5806;48.748;9.278;2024-03-23T03:56:55;9.73;;;3.87;;
11498;SDS011;5806;48.748;9.278;2024-03-23T03:59:22;7.13;;;3.87;;
11498;SDS011;5806;48.748;9.278;2024-03-23T04:01:49;9.23;;;4.00;;
11498;SDS011;5806;48.748;9.278;2024-03-23T04:04:17;9.07;;;3.73;;
11498;SDS011;5806;48.748;9.278;2024-03-23T04:06:46;11.27;;;3.90;;
11498;SDS011;5806;48.748;9.278;2024-03-23T04:09:13;7.73;;;3.40;;
11498;SDS011;5806;48.748;9.278;2024-03-23T04:11:40;9.73;;;4.17;;
11498;SDS011;5806;48.748;9.278;2024-03-23T04:14:08;7.97;;;3.27;;
11498;SDS011;5806;48.748;9.278;2024-03-23T04:16:35;11.40;;;4.10;;
11498;SDS011;5806;48.748;9.278;2024-03-23T04:19:03;10.00;;;3.87;;
11498;SDS011;5806;48.748;9.278;2024-03-23T04:21:30;7.50;;;3.10;;
11498;SDS011;5806;48.748;9.278;2024-03-23T04:23:57;7.53;;;3.07;;
11498;SDS011;5806;48.748;9.278;2024-03-23T04:26:25;5.73;;;2.37;;
11498;SDS011;5806;48.748;9.278;2024-03-23T04:28:53;8.33;;;3.00;;
11498;SDS011;5806;48.748;9.278;2024-03-23T04:31:21;10.10;;;2.73;;
11498;SDS011;5806;48.748;9.278;2024-03-23T04:33:48;11.00;;;2.93;;
11498;SDS011;5806;48.748;9.278;2024-03-23T04:36:15;6.93;;;2.63;;
11498;SDS011;5806;48.748;9.278;2024-03-23T04:38:45;8.30;;;3.00;;
11498;SDS011;5806;48.748;9.278;2024-03-23T04:41:15;11.97;;;3.90;;
11498;SDS011;5806;48.748;9.278;2024-03-23T04:43:42;9.50;;;3.57;;
11498;SDS011;5806;48.748;9.278;2024-03-23T04:46:10;7.27;;;2.87;;
11498;SDS011;5806;48.748;9.278;2024-03-23T04:48:37;7.60;;;3.30;;
11498;SDS011;5806;48.748;9.278;2024-03-23T04:51:04;8.67;;;3.17;;
11498;SDS011;5806;48.748;9.278;2024-03-23T04:53:32;6.97;;;2.83;;
11498;SDS011;5806;48.748;9.278;2024-03-23T04:55:59;8.03;;;3.00;;
11498;SDS011;5806;48.748;9.278;2024-03-23T04:58:27;10.47;;;3.30;;
11498;SDS011;5806;48.748;9.278;2024-03-23T05:00:55;9.73;;;2.90;;
11498;SDS011;5806;48.748;9.278;2024-03-23T05:03:23;7.33;;;2.47;;
11498;SDS011;5806;48.748;9.278;2024-03-23T05:05:51;8.93;;;2.10;;
11498;SDS011;5806;48.748;9.278;2024-03-23T05:08:18;7.47;;;2.47;;
11498;SDS011;5806;48.748;9.278;2024-03-23T05:10:46;7.80;;;2.90;;
11498;SDS011;5806;48.748;9.278;2024-03-23T05:13:13;6.33;;;2.27;;
11498;SDS011;5806;48.748;9.278;2024-03-23T05:15:40;7.93;;;2.30;;
11498;SDS011;5806;48.748;9.278;2024-03-23T05:18:08;10.30;;;2.80;;
11498;SDS011;5806;48.748;9.278;2024-03-23T05:20:36;7.33;;;2.23;;
11498;SDS011;5806;48.748;9.278;2024-03-23T05:23:04;10.73;;;2.43;;
11498;SDS011;5806;48.748;9.278;2024-03-23T05:25:31;6.80;;;2.20;;
11498;SDS011;5806;48.748;9.278;2024-03-23T05:27:59;7.67;;;2.27;;
11498;SDS011;5806;48.748;9.278;2024-03-23T05:30:27;9.57;;;2.13;;
11498;SDS011;5806;48.748;9.278;2024-03-23T05:32:54;7.07;;;2.20;;
11498;SDS011;5806;48.748;9.278;2024-03-23T05:35:22;8.10;;;2.00;;
11498;SDS011;5806;48.748;9.278;2024-03-23T05:37:50;9.63;;;1.90;;
11498;SDS011;5806;48.748;9.278;2024-03-23T05:40:17;8.93;;;2.57;;
11498;SDS011;5806;48.748;9.278;2024-03-23T05:42:45;6.67;;;1.90;;
11498;SDS011;5806;48.748;9.278;2024-03-23T05:45:12;11.27;;;2.13;;
11498;SDS011;5806;48.748;9.278;2024-03-23T05:47:39;8.60;;;2.57;;
11498;SDS011;5806;48.748;9.278;2024-03-23T05:50:07;8.13;;;2.17;;
11498;SDS011;5806;48.748;9.278;2024-03-23T05:52:36;9.03;;;2.07;;
11498;SDS011;5806;48.748;9.278;2024-03-23T05:55:04;7.13;;;2.07;;
11498;SDS011;5806;48.748;9.278;2024-03-23T05:57:32;7.13;;;1.60;;
11498;SDS011;5806;48.748;9.278;2024-03-23T05:59:59;6.03;;;1.67;;
11498;SDS011;5806;48.748;9.278;2024-03-23T06:02:27;10.87;;;2.93;;
11498;SDS011;5806;48.748;9.278;2024-03-23T06:04:54;12.67;;;2.13;;
11498;SDS011;5806;48.748;9.278;2024-03-23T06:07:22;9.43;;;2.10;;
11498;SDS011;5806;48.748;9.278;2024-03-23T06:09:49;11.03;;;2.40;;
11498;SDS011;5806;48.748;9.278;2024-03-23T06:12:17;8.03;;;2.23;;
11498;SDS011;5806;48.748;9.278;2024-03-23T06:14:44;9.27;;;2.27;;
11498;SDS011;5806;48.748;9.278;2024-03-23T06:17:13;8.93;;;2.67;;
11498;SDS011;5806;48.748;9.278;2024-03-23T06:19:41;7.77;;;1.83;;
11498;SDS011;5806;48.748;9.278;2024-03-23T06:22:08;10.77;;;2.57;;
11498;SDS011;5806;48.748;9.278;2024-03-23T06:24:36;8.83;;;2.27;;
11498;SDS011;5806;48.748;9.278;2024-03-23T06:27:03;9.77;;;2.67;;
11498;SDS011;5806;48.748;9.278;2024-03-23T06:29:31;9.13;;;2.67;;
11498;SDS011;5806;48.748;9.278;2024-03-23T06:31:58;7.67;;;2.33;;
11498;SDS011;5806;48.748;9.278;2024-03-23T06:34:25;8.80;;;2.30;;
11498;SDS011;5806;48.748;9.278;2024-03-23T06:36:53;10.23;;;2.43;;
11498;SDS011;5806;48.748;9.278;2024-03-23T06:39:20;7.37;;;2.47;;
11498;SDS011;5806;48.748;9.278;2024-03-23T06:41:54;10.87;;;2.83;;
11498;SDS011;5806;48.748;9.278;2024-03-23T06:44:22;9.80;;;2.33;;
11498;SDS011;5806;48.748;9.278;2024-03-23T06:46:49;6.80;;;2.40;;
11498;SDS011;5806;48.748;9.278;2024-03-23T06:49:17;11.53;;;2.90;;
11498;SDS011;5806;48.748;9.278;2024-03-23T06:51:44;12.37;;;3.00;;
11498;SDS011;5806;48.748;9.278;2024-03-23T06:54:12;11.70;;;2.30;;
11498;SDS011;5806;48.748;9.278;2024-03-23T06:56:40;10.77;;;2.77;;
11498;SDS011;5806;48.748;9.278;2024-03-23T06:59:07;9.30;;;2.57;;
11498;SDS011;5806;48.748;9.278;2024-03-23T07:01:35;10.97;;;2.87;;
11498;SDS011;5806;48.748;9.278;2024-03-23T07:04:02;10.97;;;2.53;;
11498;SDS011;5806;48.748;9.278;2024-03-23T07:06:30;10.50;;;2.63;;
11498;SDS011;5806;48.748;9.278;2024-03-23T07:11:44;10.00;;;3.53;;
11498;SDS011;5806;48.748;9.278;2024-03-23T07:14:11;8.87;;;2.80;;
11498;SDS011;5806;48.748;9.278;2024-03-23T07:16:39;12.77;;;4.27;;
11498;SDS011;5806;48.748;9.278;2024-03-23T07:19:06;11.43;;;3.00;;
11498;SDS011;5806;48.748;9.278;2024-03-23T07:21:34;11.33;;;3.40;;
11498;SDS011;5806;48.748;9.278;2024-03-23T07:24:01;10.93;;;3.50;;
11498;SDS011;5806;48.748;9.278;2024-03-23T07:26:29;12.83;;;2.97;;
11498;SDS011;5806;48.748;9.278;2024-03-23T07:28:56;13.70;;;3.43;;
11498;SDS011;5806;48.748;9.278;2024-03-23T07:31:23;10.50;;;3.80;;
11498;SDS011;5806;48.748;9.278;2024-03-23T07:33:51;14.50;;;3.90;;
11498;SDS011;5806;48.748;9.278;2024-03-23T07:36:18;8.50;;;3.90;;
11498;SDS011;5806;48.748;9.278;2024-03-23T07:38:46;10.90;;;3.80;;
11498;SDS011;5806;48.748;9.278;2024-03-23T07:41:21;6.97;;;3.80;;
11498;SDS011;5806;48.748;9.278;2024-03-23T07:43:46;9.70;;;3.83;;
11498;SDS011;5806;48.748;9.278;2024-03-23T07:46:14;10.60;;;4.50;;
11498;SDS011;5806;48.748;9.278;2024-03-23T07:48:42;8.07;;;4.00;;
11498;SDS011;5806;48.748;9.278;2024-03-23T07:51:11;11.63;;;3.80;;
11498;SDS011;5806;48.748;9.278;2024-03-23T07:53:45;15.60;;;5.07;;
11498;SDS011;5806;48.748;9.278;2024-03-23T07:56:14;13.23;;;4.40;;
11498;SDS011;5806;48.748;9.278;2024-03-23T07:58:44;10.57;;;4.60;;
11498;SDS011;5806;48.748;9.278;2024-03-23T08:01:12;8.97;;;4.70;;
11498;SDS011;5806;48.748;9.278;2024-03-23T08:03:44;10.37;;;4.87;;
11498;SDS011;5806;48.748;9.278;2024-03-23T08:06:15;13.47;;;5.07;;
11498;SDS011;5806;48.748;9.278;2024-03-23T08:08:45;15.17;;;5.63;;
11498;SDS011;5806;48.748;9.278;2024-03-23T08:11:14;13.30;;;5.60;;
11498;SDS011;5806;48.748;9.278;2024-03-23T08:13:42;20.23;;;6.13;;
11498;SDS011;5806;48.748;9.278;2024-03-23T08:16:11;14.93;;;5.80;;
11498;SDS011;5806;48.748;9.278;2024-03-23T08:18:39;12.83;;;5.20;;
11498;SDS011;5806;48.748;9.278;2024-03-23T08:21:07;12.20;;;5.00;;
11498;SDS011;5806;48.748;9.278;2024-03-23T08:23:35;14.93;;;6.47;;
11498;SDS011;5806;48.748;9.278;2024-03-23T08:26:07;12.73;;;4.83;;
11498;SDS011;5806;48.748;9.278;2024-03-23T08:28:36;12.93;;;5.40;;
11498;SDS011;5806;48.748;9.278;2024-03-23T08:31:07;11.60;;;4.80;;
11498;SDS011;5806;48.748;9.278;2024-03-23T08:33:36;8.97;;;4.73;;
11498;SDS011;5806;48.748;9.278;2024-03-23T08:36:05;8.67;;;4.50;;
11498;SDS011;5806;48.748;9.278;2024-03-23T08:38:34;7.90;;;4.40;;
11498;SDS011;5806;48.748;9.278;2024-03-23T08:41:02;10.07;;;3.80;;
11498;SDS011;5806;48.748;9.278;2024-03-23T08:43:38;11.90;;;4.70;;
11498;SDS011;5806;48.748;9.278;2024-03-23T08:46:07;7.60;;;3.00;;
11498;SDS011;5806;48.748;9.278;2024-03-23T08:48:36;9.50;;;3.10;;
11498;SDS011;5806;48.748;9.278;2024-03-23T08:51:12;7.10;;;2.80;;
11498;SDS011;5806;48.748;9.278;2024-03-23T08:53:41;9.00;;;2.90;;
11498;SDS011;5806;48.748;9.278;2024-03-23T08:56:09;10.23;;;3.00;;
11498;SDS011;5806;48.748;9.278;2024-03-23T08:58:37;8.83;;;3.63;;
11498;SDS011;5806;48.748;9.278;2024-03-23T09:01:09;11.67;;;3.80;;
11498;SDS011;5806;48.748;9.278;2024-03-23T09:03:39;12.80;;;4.13;;
11498;SDS011;5806;48.748;9.278;2024-03-23T09:06:07;7.30;;;3.83;;
11498;SDS011;5806;48.748;9.278;2024-03-23T09:08:35;15.57;;;4.30;;
11498;SDS011;5806;48.748;9.278;2024-03-23T09:11:05;9.23;;;4.37;;
11498;SDS011;5806;48.748;9.278;2024-03-23T09:13:34;12.93;;;4.37;;
11498;SDS011;5806;48.748;9.278;2024-03-23T09:16:03;11.27;;;4.27;;
11498;SDS011;5806;48.748;9.278;2024-03-23T09:18:32;9.20;;;4.20;;
11498;SDS011;5806;48.748;9.278;2024-03-23T09:21:01;10.40;;;4.33;;
11498;SDS011;5806;48.748;9.278;2024-03-23T09:23:29;13.20;;;4.00;;
11498;SDS011;5806;48.748;9.278;2024-03-23T09:25:56;9.10;;;3.90;;
11498;SDS011;5806;48.748;9.278;2024-03-23T09:28:23;9.57;;;3.80;;
11498;SDS011;5806;48.748;9.278;2024-03-23T09:30:51;7.13;;;4.13;;
11498;SDS011;5806;48.748;9.278;2024-03-23T09:33:18;8.73;;;3.70;;
11498;SDS011;5806;48.748;9.278;2024-03-23T09:35:46;11.50;;;4.00;;
11498;SDS011;5806;48.748;9.278;2024-03-23T09:38:13;10.23;;;3.73;;
11498;SDS011;5806;48.748;9.278;2024-03-23T09:40:41;7.67;;;3.00;;
11498;SDS011;5806;48.748;9.278;2024-03-23T09:43:09;8.60;;;3.13;;
11498;SDS011;5806;48.748;9.278;2024-03-23T09:45:40;8.93;;;3.17;;
11498;SDS011;5806;48.748;9.278;2024-03-23T09:48:10;16.33;;;3.83;;
11498;SDS011;5806;48.748;9.278;2024-03-23T09:50:39;10.57;;;3.77;;
11498;SDS011;5806;48.748;9.278;2024-03-23T09:53:07;6.07;;;3.17;;
11498;SDS011;5806;48.748;9.278;2024-03-23T09:55:37;9.87;;;3.40;;
11498;SDS011;5806;48.748;9.278;2024-03-23T09:58:06;6.50;;;2.77;;
11498;SDS011;5806;48.748;9.278;2024-03-23T10:00:36;13.47;;;3.17;;
11498;SDS011;5806;48.748;9.278;2024-03-23T10:03:04;8.17;;;3.23;;
11498;SDS011;5806;48.748;9.278;2024-03-23T10:05:32;7.40;;;2.70;;
11498;SDS011;5806;48.748;9.278;2024-03-23T10:08:02;9.17;;;2.60;;
11498;SDS011;5806;48.748;9.278;2024-03-23T10:10:43;6.47;;;2.70;;
11498;SDS011;5806;48.748;9.278;2024-03-23T10:13:11;6.57;;;2.10;;
11498;SDS011;5806;48.748;9.278;2024-03-23T10:15:58;9.40;;;2.57;;
11498;SDS011;5806;48.748;9.278;2024-03-23T10:18:26;6.87;;;2.77;;
11498;SDS011;5806;48.748;9.278;2024-03-23T10:23:41;6.53;;;2.40;;
11498;SDS011;5806;48.748;9.278;2024-03-23T10:28:52;8.53;;;2.30;;
11498;SDS011;5806;48.748;9.278;2024-03-23T10:31:25;3.90;;;1.87;;
11498;SDS011;5806;48.748;9.278;2024-03-23T10:33:52;9.10;;;2.20;;
11498;SDS011;5806;48.748;9.278;2024-03-23T10:36:20;8.27;;;2.13;;
11498;SDS011;5806;48.748;9.278;2024-03-23T10:38:52;4.97;;;1.50;;
11498;SDS011;5806;48.748;9.278;2024-03-23T10:41:20;5.17;;;1.77;;
11498;SDS011;5806;48.748;9.278;2024-03-23T10:43:49;5.30;;;1.70;;
11498;SDS011;5806;48.748;9.278;2024-03-23T10:46:16;6.63;;;2.03;;
11498;SDS011;5806;48.748;9.278;2024-03-23T10:48:44;7.00;;;1.70;;
11498;SDS011;5806;48.748;9.278;2024-03-23T10:51:11;7.87;;;1.70;;
11498;SDS011;5806;48.748;9.278;2024-03-23T10:53:40;4.70;;;1.60;;
11498;SDS011;5806;48.748;9.278;2024-03-23T10:56:08;4.30;;;1.73;;
11498;SDS011;5806;48.748;9.278;2024-03-23T10:58:42;3.70;;;1.60;;
11498;SDS011;5806;48.748;9.278;2024-03-23T11:01:12;4.50;;;0.97;;
11498;SDS011;5806;48.748;9.278;2024-03-23T11:03:51;5.00;;;1.00;;
11498;SDS011;5806;48.748;9.278;2024-03-23T11:09:28;3.60;;;0.90;;
11498;SDS011;5806;48.748;9.278;2024-03-23T11:11:51;3.57;;;1.13;;
11498;SDS011;5806;48.748;9.278;2024-03-23T11:14:21;5.17;;;1.57;;
11498;SDS011;5806;48.748;9.278;2024-03-23T11:17:07;2.47;;;0.93;;
11498;SDS011;5806;48.748;9.278;2024-03-23T11:19:37;2.80;;;1.13;;
11498;SDS011;5806;48.748;9.278;2024-03-23T11:22:05;8.17;;;1.87;;
11498;SDS011;5806;48.748;9.278;2024-03-23T11:24:33;4.17;;;1.20;;
11498;SDS011;5806;48.748;9.278;2024-03-23T11:27:15;6.90;;;1.43;;
11498;SDS011;5806;48.748;9.278;2024-03-23T11:29:34;6.20;;;1.83;;
11498;SDS011;5806;48.748;9.278;2024-03-23T11:32:03;4.60;;;1.83;;
11498;SDS011;5806;48.748;9.278;2024-03-23T11:34:31;4.60;;;1.63;;
11498;SDS011;5806;48.748;9.278;2024-03-23T11:37:04;1.67;;;1.00;;
11498;SDS011;5806;48.748;9.278;2024-03-23T11:39:32;4.30;;;1.40;;
11498;SDS011;5806;48.748;9.278;2024-03-23T11:41:59;2.73;;;0.93;;
11498;SDS011;5806;48.748;9.278;2024-03-23T11:44:27;2.60;;;0.80;;
11498;SDS011;5806;48.748;9.278;2024-03-23T11:46:54;6.13;;;1.20;;
11498;SDS011;5806;48.748;9.278;2024-03-23T11:49:25;3.00;;;1.30;;
11498;SDS011;5806;48.748;9.278;2024-03-23T11:51:54;1.37;;;1.00;;
11498;SDS011;5806;48.748;9.278;2024-03-23T11:54:24;2.17;;;1.20;;
11498;SDS011;5806;48.748;9.278;2024-03-23T11:59:34;3.23;;;1.07;;
11498;SDS011;5806;48.748;9.278;2024-03-23T12:02:07;2.37;;;0.80;;
11498;SDS011;5806;48.748;9.278;2024-03-23T12:04:36;2.13;;;0.70;;
11498;SDS011;5806;48.748;9.278;2024-03-23T12:07:11;3.50;;;0.90;;
11498;SDS011;5806;48.748;9.278;2024-03-23T12:09:40;2.33;;;0.87;;
11498;SDS011;5806;48.748;9.278;2024-03-23T12:12:13;2.20;;;0.90;;
11498;SDS011;5806;48.748;9.278;2024-03-23T12:14:43;5.77;;;1.10;;
11498;SDS011;5806;48.748;9.278;2024-03-23T12:17:12;3.73;;;1.03;;
11498;SDS011;5806;48.748;9.278;2024-03-23T12:19:41;3.10;;;1.27;;
11498;SDS011;5806;48.748;9.278;2024-03-23T12:22:11;4.33;;;1.20;;
11498;SDS011;5806;48.748;9.278;2024-03-23T12:24:38;1.90;;;1.00;;
11498;SDS011;5806;48.748;9.278;2024-03-23T12:27:07;3.10;;;1.03;;
11498;SDS011;5806;48.748;9.278;2024-03-23T12:29:35;4.60;;;1.50;;
11498;SDS011;5806;48.748;9.278;2024-03-23T12:32:04;3.17;;;1.50;;
11498;SDS011;5806;48.748;9.278;2024-03-23T12:34:32;3.53;;;1.50;;
11498;SDS011;5806;48.748;9.278;2024-03-23T12:36:59;2.33;;;0.90;;
11498;SDS011;5806;48.748;9.278;2024-03-23T12:39:27;5.50;;;1.20;;
11498;SDS011;5806;48.748;9.278;2024-03-23T12:41:55;1.83;;;1.00;;
11498;SDS011;5806;48.748;9.278;2024-03-23T12:44:22;3.33;;;1.13;;
11498;SDS011;5806;48.748;9.278;2024-03-23T12:46:50;2.57;;;1.10;;
11498;SDS011;5806;48.748;9.278;2024-03-23T12:49:17;1.90;;;1.10;;
11498;SDS011;5806;48.748;9.278;2024-03-23T12:51:53;3.00;;;0.70;;
11498;SDS011;5806;48.748;9.278;2024-03-23T12:54:18;3.00;;;0.90;;
11498;SDS011;5806;48.748;9.278;2024-03-23T12:56:45;1.70;;;0.70;;
11498;SDS011;5806;48.748;9.278;2024-03-23T12:59:13;0.60;;;0.60;;
11498;SDS011;5806;48.748;9.278;2024-03-23T13:01:42;0.60;;;0.60;;
11498;SDS011;5806;48.748;9.278;2024-03-23T13:04:09;1.20;;;0.70;;
11498;SDS011;5806;48.748;9.278;2024-03-23T13:06:37;1.37;;;0.60;;
11498;SDS011;5806;48.748;9.278;2024-03-23T13:09:05;1.80;;;0.87;;
11498;SDS011;5806;48.748;9.278;2024-03-23T13:11:32;1.73;;;1.20;;
11498;SDS011;5806;48.748;9.278;2024-03-23T13:14:00;1.07;;;0.80;;
11498;SDS011;5806;48.748;9.278;2024-03-23T13:16:29;0.93;;;0.50;;
11498;SDS011;5806;48.748;9.278;2024-03-23T13:18:57;2.27;;;0.50;;
11498;SDS011;5806;48.748;9.278;2024-03-23T13:21:26;1.90;;;0.83;;
11498;SDS011;5806;48.748;9.278;2024-03-23T13:23:54;1.50;;;0.43;;
11498;SDS011;5806;48.748;9.278;2024-03-23T13:26:21;1.07;;;0.40;;
11498;SDS011;5806;48.748;9.278;2024-03-23T13:28:49;2.33;;;0.60;;
11498;SDS011;5806;48.748;9.278;2024-03-23T13:31:16;1.30;;;0.90;;
11498;SDS011;5806;48.748;9.278;2024-03-23T13:33:44;2.27;;;1.03;;
11498;SDS011;5806;48.748;9.278;2024-03-23T13:36:12;5.60;;;2.63;;
11498;SDS011;5806;48.748;9.278;2024-03-23T13:38:39;3.27;;;1.37;;
11498;SDS011;5806;48.748;9.278;2024-03-23T13:41:07;4.07;;;1.20;;
11498;SDS011;5806;48.748;9.278;2024-03-23T13:43:36;2.87;;;0.90;;
11498;SDS011;5806;48.748;9.278;2024-03-23T13:46:03;2.70;;;1.37;;
11498;SDS011;5806;48.748;9.278;2024-03-23T13:48:31;2.87;;;1.30;;
11498;SDS011;5806;48.748;9.278;2024-03-23T13:50:59;2.10;;;1.17;;
11498;SDS011;5806;48.748;9.278;2024-03-23T13:53:28;2.73;;;1.23;;
11498;SDS011;5806;48.748;9.278;2024-03-23T13:55:56;5.93;;;1.37;;
11498;SDS011;5806;48.748;9.278;2024-03-23T13:58:23;4.37;;;1.93;;
11498;SDS011;5806;48.748;9.278;2024-03-23T14:00:53;3.80;;;2.20;;
11498;SDS011;5806;48.748;9.278;2024-03-23T14:03:22;4.33;;;1.73;;
11498;SDS011;5806;48.748;9.278;2024-03-23T14:05:50;5.90;;;1.80;;
11498;SDS011;5806;48.748;9.278;2024-03-23T14:08:18;3.90;;;1.60;;
11498;SDS011;5806;48.748;9.278;2024-03-23T14:10:47;4.90;;;1.60;;
11498;SDS011;5806;48.748;9.278;2024-03-23T14:13:14;6.43;;;1.40;;
11498;SDS011;5806;48.748;9.278;2024-03-23T14:15:42;1.30;;;0.90;;
11498;SDS011;5806;48.748;9.278;2024-03-23T14:18:09;3.93;;;0.90;;
11498;SDS011;5806;48.748;9.278;2024-03-23T14:20:36;1.63;;;0.80;;
11498;SDS011;5806;48.748;9.278;2024-03-23T14:23:04;1.87;;;0.80;;
11498;SDS011;5806;48.748;9.278;2024-03-23T14:25:32;3.50;;;0.97;;
11498;SDS011;5806;48.748;9.278;2024-03-23T14:27:59;2.53;;;0.80;;
11498;SDS011;5806;48.748;9.278;2024-03-23T14:30:26;0.90;;;0.67;;
11498;SDS011;5806;48.748;9.278;2024-03-23T14:32:54;1.33;;;0.73;;
11498;SDS011;5806;48.748;9.278;2024-03-23T14:35:22;3.80;;;0.93;;
11498;SDS011;5806;48.748;9.278;2024-03-23T14:37:49;2.67;;;0.90;;
11498;SDS011;5806;48.748;9.278;2024-03-23T14:40:17;1.03;;;0.80;;
11498;SDS011;5806;48.748;9.278;2024-03-23T14:42:45;2.70;;;1.00;;
11498;SDS011;5806;48.748;9.278;2024-03-23T14:45:12;1.73;;;1.07;;
11498;SDS011;5806;48.748;9.278;2024-03-23T14:47:41;1.77;;;0.90;;
11498;SDS011;5806;48.748;9.278;2024-03-23T14:50:08;4.83;;;1.17;;
11498;SDS011;5806;48.748;9.278;2024-03-23T14:52:37;4.03;;;1.37;;
11498;SDS011;5806;48.748;9.278;2024-03-23T14:55:05;2.40;;;1.10;;
11498;SDS011;5806;48.748;9.278;2024-03-23T14:57:34;2.03;;;1.30;;
11498;SDS011;5806;48.748;9.278;2024-03-23T15:00:01;2.50;;;1.30;;
11498;SDS011;5806;48.748;9.278;2024-03-23T15:02:30;2.70;;;1.20;;
11498;SDS011;5806;48.748;9.278;2024-03-23T15:04:58;4.03;;;1.40;;
11498;SDS011;5806;48.748;9.278;2024-03-23T15:07:25;2.43;;;1.10;;
11498;SDS011;5806;48.748;9.278;2024-03-23T15:09:54;2.30;;;0.93;;
11498;SDS011;5806;48.748;9.278;2024-03-23T15:12:21;2.77;;;1.10;;
11498;SDS011;5806;48.748;9.278;2024-03-23T15:14:48;4.40;;;1.10;;
11498;SDS011;5806;48.748;9.278;2024-03-23T15:17:16;0.93;;;0.70;;
11498;SDS011;5806;48.748;9.278;2024-03-23T15:19:44;3.27;;;0.90;;
11498;SDS011;5806;48.748;9.278;2024-03-23T15:22:11;3.50;;;1.37;;
11498;SDS011;5806;48.748;9.278;2024-03-23T15:24:38;1.87;;;1.00;;
11498;SDS011;5806;48.748;9.278;2024-03-23T15:27:06;1.80;;;0.93;;
11498;SDS011;5806;48.748;9.278;2024-03-23T15:29:34;1.90;;;1.33;;
11498;SDS011;5806;48.748;9.278;2024-03-23T15:32:02;1.47;;;0.70;;
11498;SDS011;5806;48.748;9.278;2024-03-23T15:34:30;1.97;;;0.87;;
11498;SDS011;5806;48.748;9.278;2024-03-23T15:36:57;2.17;;;0.73;;
11498;SDS011;5806;48.748;9.278;2024-03-23T15:39:24;2.73;;;0.90;;
11498;SDS011;5806;48.748;9.278;2024-03-23T15:41:52;2.07;;;0.80;;
11498;SDS011;5806;48.748;9.278;2024-03-23T15:44:20;2.80;;;1.00;;
11498;SDS011;5806;48.748;9.278;2024-03-23T15:46:47;2.90;;;1.50;;
11498;SDS011;5806;48.748;9.278;2024-03-23T15:49:14;3.80;;;1.33;;
11498;SDS011;5806;48.748;9.278;2024-03-23T15:51:42;2.67;;;1.00;;
11498;SDS011;5806;48.748;9.278;2024-03-23T15:54:09;1.43;;;0.77;;
11498;SDS011;5806;48.748;9.278;2024-03-23T15:56:37;3.03;;;1.03;;
11498;SDS011;5806;48.748;9.278;2024-03-23T15:59:04;2.70;;;0.80;;
11498;SDS011;5806;48.748;9.278;2024-03-23T16:01:32;2.20;;;1.10;;
11498;SDS011;5806;48.748;9.278;2024-03-23T16:04:05;1.97;;;0.80;;
11498;SDS011;5806;48.748;9.278;2024-03-23T16:06:29;2.97;;;1.10;;
11498;SDS011;5806;48.748;9.278;2024-03-23T16:08:56;3.00;;;1.10;;